createdAt,value
2023-04-01T00:02:29.395Z,100.00
2023-04-01T00:05:44.298Z,100.00
2023-04-01T00:08:46.658Z,100.00
2023-04-01T00:12:01.317Z,100.00
2023-04-01T00:15:05.134Z,100.00
2023-04-01T00:18:20.300Z,100.00
2023-04-01T00:21:29.190Z,100.00
2023-04-01T00:24:45.328Z,100.00
2023-04-01T00:27:53.855Z,100.00
2023-04-01T00:31:16.360Z,100.00
2023-04-01T00:34:24.350Z,100.00
2023-04-01T00:37:36.878Z,100.00
2023-04-01T00:40:53.314Z,100.00
2023-04-01T00:44:23.306Z,100.00
2023-04-01T00:47:32.034Z,100.00
2023-04-01T00:51:02.323Z,100.00
2023-04-01T00:54:12.303Z,100.00
2023-04-01T00:57:37.330Z,100.00
2023-04-01T01:00:49.228Z,100.00
2023-04-01T01:04:04.316Z,100.00
2023-04-01T01:07:54.331Z,100.00
2023-04-01T01:11:03.324Z,100.00
2023-04-01T01:14:43.324Z,100.00
2023-04-01T01:18:20.312Z,100.00
2023-04-01T01:21:28.217Z,100.00
2023-04-01T01:24:58.331Z,100.00
2023-04-01T01:28:34.311Z,100.00
2023-04-01T01:31:59.295Z,100.00
2023-04-01T01:35:36.336Z,100.00
2023-04-01T01:38:46.913Z,100.00
2023-04-01T01:41:56.319Z,100.00
2023-04-01T01:45:08.154Z,100.00
2023-04-01T01:48:18.342Z,100.00
2023-04-01T01:51:40.331Z,100.00
2023-04-01T01:55:04.317Z,100.00
2023-04-01T01:58:21.354Z,100.00
2023-04-01T02:01:34.062Z,100.00
2023-04-01T02:04:48.435Z,100.00
2023-04-01T02:08:09.314Z,100.00
2023-04-01T02:11:24.710Z,100.00
2023-04-01T02:14:46.311Z,100.00
2023-04-01T02:17:55.849Z,100.00
2023-04-01T02:21:06.348Z,100.00
2023-04-01T02:24:15.976Z,100.00
2023-04-01T02:27:24.343Z,100.00
2023-04-01T02:30:36.124Z,100.00
2023-04-01T02:33:53.360Z,100.00
2023-04-01T02:37:09.344Z,100.00
2023-04-01T02:40:22.331Z,100.00
2023-04-01T02:43:37.324Z,100.00
2023-04-01T02:46:52.403Z,100.00
2023-04-01T02:49:54.338Z,100.00
2023-04-01T02:53:09.341Z,100.00
2023-04-01T02:56:17.337Z,100.00
2023-04-01T02:59:33.326Z,100.00
2023-04-01T03:02:48.428Z,100.00
2023-04-01T03:06:03.347Z,100.00
2023-04-01T03:09:05.273Z,100.00
2023-04-01T03:12:20.347Z,100.00
2023-04-01T03:15:35.374Z,100.00
2023-04-01T03:18:50.348Z,100.00
2023-04-01T03:21:59.263Z,100.00
2023-04-01T03:25:08.320Z,100.00
2023-04-01T03:28:48.048Z,100.00
2023-04-01T03:31:56.331Z,100.00
2023-04-01T03:35:05.444Z,100.00
2023-04-01T03:38:13.328Z,100.00
2023-04-01T03:41:28.314Z,100.00
2023-04-01T03:44:37.477Z,100.00
2023-04-01T03:47:52.365Z,100.00
2023-04-01T03:51:00.338Z,100.00
2023-04-01T03:54:10.052Z,100.00
2023-04-01T03:57:18.332Z,100.00
2023-04-01T04:00:27.099Z,100.00
2023-04-01T04:03:35.554Z,100.00
2023-04-01T04:06:50.330Z,100.00
2023-04-01T04:10:05.337Z,100.00
2023-04-01T04:13:20.311Z,100.00
2023-04-01T04:16:29.016Z,100.00
2023-04-01T04:19:40.316Z,100.00
2023-04-01T04:22:48.907Z,100.00
2023-04-01T04:26:29.353Z,100.00
2023-04-01T04:29:31.466Z,100.00
2023-04-01T04:32:46.362Z,100.00
2023-04-01T04:35:54.398Z,100.00
2023-04-01T04:39:02.956Z,100.00
2023-04-01T04:42:18.338Z,100.00
2023-04-01T04:45:26.928Z,100.00
2023-04-01T04:48:41.328Z,100.00
2023-04-01T04:51:56.580Z,100.00
2023-04-01T04:55:12.346Z,100.00
2023-04-01T04:58:20.319Z,100.00
2023-04-01T05:01:29.618Z,100.00
2023-04-01T05:04:42.315Z,100.00
2023-04-01T05:07:50.868Z,100.00
2023-04-01T05:11:05.313Z,100.00
2023-04-01T05:14:13.350Z,100.00
2023-04-01T05:17:28.373Z,100.00
2023-04-01T05:20:43.343Z,100.00
2023-04-01T05:23:52.328Z,100.00
2023-04-01T05:27:07.369Z,100.00
2023-04-01T05:30:09.716Z,100.00
2023-04-01T05:33:24.354Z,100.00
2023-04-01T05:36:39.301Z,100.00
2023-04-01T05:39:41.399Z,100.00
2023-04-01T05:42:57.325Z,100.00
2023-04-01T05:46:13.352Z,100.00
2023-04-01T05:49:22.326Z,100.00
2023-04-01T05:52:45.333Z,100.00
2023-04-01T05:55:47.270Z,100.00
2023-04-01T05:59:02.359Z,100.00
2023-04-01T06:02:04.503Z,100.00
2023-04-01T06:05:25.346Z,98.06
2023-04-01T06:13:14.365Z,95.29
2023-04-01T06:16:45.791Z,94.96
2023-04-01T06:20:28.366Z,93.48
2023-04-01T06:24:06.376Z,92.36
2023-04-01T06:27:23.927Z,91.51
2023-04-01T06:31:00.383Z,90.05
2023-04-01T06:34:27.655Z,90.85
2023-04-01T06:37:58.366Z,90.04
2023-04-01T06:41:43.352Z,88.88
2023-04-01T06:45:20.639Z,88.14
2023-04-01T06:48:57.383Z,87.42
2023-04-01T06:52:09.370Z,85.39
2023-04-01T06:55:36.756Z,85.59
2023-04-01T06:58:52.375Z,84.35
2023-04-01T07:02:20.347Z,84.51
2023-04-01T07:05:33.675Z,83.41
2023-04-01T07:08:48.335Z,82.20
2023-04-01T07:12:10.366Z,81.86
2023-04-01T07:15:29.361Z,82.59
2023-04-01T07:19:05.372Z,82.62
2023-04-01T07:22:32.358Z,81.55
2023-04-01T07:25:47.384Z,81.56
2023-04-01T07:29:02.353Z,80.62
2023-04-01T07:32:52.894Z,79.38
2023-04-01T07:36:32.564Z,78.33
2023-04-01T07:40:30.370Z,77.62
2023-04-01T07:43:41.630Z,77.72
2023-04-01T07:47:16.388Z,76.70
2023-04-01T07:51:05.336Z,76.21
2023-04-01T07:54:46.347Z,75.51
2023-04-01T07:58:11.425Z,75.21
2023-04-01T08:01:45.386Z,73.13
2023-04-01T08:05:22.253Z,73.19
2023-04-01T08:08:51.412Z,71.72
2023-04-01T08:12:44.390Z,71.02
2023-04-01T08:16:07.088Z,71.21
2023-04-01T08:19:56.362Z,71.19
2023-04-01T08:23:23.410Z,70.28
2023-04-01T08:26:39.990Z,70.25
2023-04-01T08:30:10.384Z,71.44
2023-04-01T08:33:27.630Z,70.89
2023-04-01T08:36:47.376Z,70.45
2023-04-01T08:40:00.359Z,69.19
2023-04-01T08:43:36.368Z,69.10
2023-04-01T08:47:22.392Z,68.07
2023-04-01T08:50:52.395Z,68.49
2023-04-01T08:54:51.388Z,68.79
2023-04-01T08:57:59.404Z,68.87
2023-04-01T09:01:48.394Z,70.32
2023-04-01T09:05:34.674Z,70.95
2023-04-01T09:09:30.668Z,69.65
2023-04-01T09:13:04.377Z,68.95
2023-04-01T09:16:50.370Z,68.31
2023-04-01T09:20:23.446Z,69.38
2023-04-01T09:24:16.410Z,69.16
2023-04-01T09:28:07.394Z,70.46
2023-04-01T09:31:44.455Z,69.83
2023-04-01T09:35:21.639Z,70.20
2023-04-01T09:39:05.380Z,70.66
2023-04-01T09:42:20.395Z,69.21
2023-04-01T09:45:57.380Z,69.44
2023-04-01T09:49:34.400Z,71.81
2023-04-01T09:53:24.878Z,73.54
2023-04-01T09:56:51.418Z,73.26
2023-04-01T10:00:31.391Z,73.72
2023-04-01T10:04:06.155Z,73.96
2023-04-01T10:07:52.391Z,73.22
2023-04-01T10:11:03.944Z,73.66
2023-04-01T10:14:39.382Z,73.84
2023-04-01T10:18:27.406Z,74.27
2023-04-01T10:21:55.369Z,74.62
2023-04-01T10:25:32.641Z,75.16
2023-04-01T10:28:59.432Z,74.37
2023-04-01T10:32:20.239Z,73.89
2023-04-01T10:35:28.398Z,73.60
2023-04-01T10:38:54.397Z,73.52
2023-04-01T10:42:25.396Z,74.83
2023-04-01T10:46:00.451Z,74.49
2023-04-01T10:49:43.370Z,73.75
2023-04-01T10:53:08.478Z,72.96
2023-04-01T10:56:37.392Z,74.64
2023-04-01T11:00:14.435Z,73.79
2023-04-01T11:03:54.499Z,72.42
2023-04-01T11:07:05.667Z,72.60
2023-04-01T11:10:32.382Z,72.39
2023-04-01T11:13:50.370Z,72.08
2023-04-01T11:17:11.397Z,72.49
2023-04-01T11:20:47.420Z,72.78
2023-04-01T11:24:19.835Z,72.89
2023-04-01T11:27:56.385Z,73.22
2023-04-01T11:31:27.105Z,69.62
2023-04-01T11:35:04.402Z,68.83
2023-04-01T11:38:21.444Z,68.40
2023-04-01T11:41:46.440Z,68.67
2023-04-01T11:45:19.411Z,68.61
2023-04-01T11:49:07.371Z,68.65
2023-04-01T11:52:41.402Z,70.35
2023-04-01T11:56:24.318Z,70.77
2023-04-01T12:00:09.401Z,72.29
2023-04-01T12:03:55.623Z,73.13
2023-04-01T12:07:24.300Z,72.38
2023-04-01T12:10:40.386Z,72.10
2023-04-01T12:14:21.373Z,71.73
2023-04-01T12:17:37.657Z,71.43
2023-04-01T12:20:55.428Z,71.37
2023-04-01T12:24:12.144Z,71.03
2023-04-01T12:27:36.440Z,69.41
2023-04-01T12:30:49.947Z,68.72
2023-04-01T12:34:04.389Z,69.05
2023-04-01T12:37:38.415Z,68.17
2023-04-01T12:40:58.424Z,67.43
2023-04-01T12:44:31.440Z,66.83
2023-04-01T12:47:46.408Z,67.92
2023-04-01T12:51:23.425Z,67.87
2023-04-01T12:55:14.422Z,66.93
2023-04-01T12:58:48.426Z,67.52
2023-04-01T13:02:03.538Z,65.86
2023-04-01T13:05:39.410Z,65.42
2023-04-01T13:09:06.832Z,64.84
2023-04-01T13:12:39.519Z,64.27
2023-04-01T13:15:56.667Z,64.47
2023-04-01T13:19:20.401Z,63.61
2023-04-01T13:22:46.168Z,64.09
2023-04-01T13:26:19.517Z,62.75
2023-04-01T13:29:44.781Z,62.88
2023-04-01T13:33:17.560Z,60.97
2023-04-01T13:36:32.262Z,61.59
2023-04-01T13:40:12.422Z,61.06
2023-04-01T13:44:07.591Z,62.31
2023-04-01T13:47:54.496Z,62.15
2023-04-01T13:51:24.401Z,61.52
2023-04-01T13:55:19.417Z,62.23
2023-04-01T13:58:59.809Z,61.45
2023-04-01T14:02:32.474Z,62.26
2023-04-01T14:05:56.398Z,62.91
2023-04-01T14:09:24.489Z,61.65
2023-04-01T14:12:44.896Z,62.20
2023-04-01T14:15:53.473Z,60.79
2023-04-01T14:19:26.046Z,61.39
2023-04-01T14:22:50.438Z,63.07
2023-04-01T14:26:30.454Z,63.57
2023-04-01T14:29:55.598Z,63.58
2023-04-01T14:33:35.442Z,65.55
2023-04-01T14:37:11.753Z,65.45
2023-04-01T14:40:53.424Z,66.53
2023-04-01T14:44:26.435Z,66.35
2023-04-01T14:52:00.444Z,67.25
2023-04-01T14:55:37.609Z,67.33
2023-04-01T14:58:44.352Z,67.63
2023-04-01T15:02:26.573Z,66.64
2023-04-01T15:05:57.656Z,66.72
2023-04-01T15:09:23.737Z,66.45
2023-04-01T15:12:50.492Z,65.54
2023-04-01T15:16:33.546Z,64.78
2023-04-01T15:20:03.573Z,64.92
2023-04-01T15:23:23.440Z,66.78
2023-04-01T15:27:06.457Z,67.72
2023-04-01T15:30:36.097Z,68.81
2023-04-01T15:33:59.480Z,67.93
2023-04-01T15:37:08.007Z,69.24
2023-04-01T15:40:36.690Z,68.93
2023-04-01T15:43:54.420Z,66.32
2023-04-01T15:47:26.175Z,66.85
2023-04-01T15:51:03.519Z,65.55
2023-04-01T15:54:35.459Z,65.64
2023-04-01T15:57:49.833Z,63.95
2023-04-01T16:01:12.596Z,64.52
2023-04-01T16:04:41.517Z,63.66
2023-04-01T16:08:27.768Z,63.84
2023-04-01T16:11:57.466Z,61.27
2023-04-01T16:15:21.565Z,61.88
2023-04-01T16:19:04.670Z,61.51
2023-04-01T16:22:27.425Z,59.48
2023-04-01T16:26:28.157Z,59.39
2023-04-01T16:30:08.458Z,58.67
2023-04-01T16:33:47.248Z,59.28
2023-04-01T16:37:18.795Z,60.41
2023-04-01T16:40:43.422Z,59.73
2023-04-01T16:43:58.702Z,60.18
2023-04-01T16:47:19.567Z,60.27
2023-04-01T16:50:35.697Z,60.85
2023-04-01T16:54:06.840Z,60.46
2023-04-01T16:57:30.895Z,60.03
2023-04-01T17:00:55.934Z,60.42
2023-04-01T17:04:48.485Z,60.83
2023-04-01T17:08:36.860Z,61.16
2023-04-01T17:12:16.782Z,62.18
2023-04-01T17:15:52.757Z,61.96
2023-04-01T17:19:10.694Z,62.33
2023-04-01T17:22:37.473Z,62.45
2023-04-01T17:26:14.914Z,63.58
2023-04-01T17:30:02.762Z,63.82
2023-04-01T17:33:26.539Z,64.02
2023-04-01T17:37:06.828Z,65.19
2023-04-01T17:40:37.448Z,66.11
2023-04-01T17:44:10.751Z,67.41
2023-04-01T17:47:35.925Z,68.21
2023-04-01T17:51:14.878Z,68.59
2023-04-01T17:54:43.976Z,68.88
2023-04-01T17:58:14.462Z,69.93
2023-04-01T18:02:00.938Z,70.02
2023-04-01T18:05:51.888Z,70.23
2023-04-01T18:09:28.784Z,70.24
2023-04-01T18:12:59.938Z,70.35
2023-04-01T18:16:37.936Z,70.76
2023-04-01T18:20:37.203Z,71.65
2023-04-01T18:24:13.992Z,71.75
2023-04-01T18:27:45.867Z,72.03
2023-04-01T18:31:13.969Z,72.32
2023-04-01T18:34:54.965Z,72.17
2023-04-01T18:38:39.866Z,72.18
2023-04-01T18:42:01.356Z,73.13
2023-04-01T18:45:38.775Z,73.04
2023-04-01T18:48:48.769Z,74.05
2023-04-01T18:52:26.916Z,74.15
2023-04-01T18:55:51.767Z,74.61
2023-04-01T18:59:08.972Z,74.94
2023-04-01T19:02:49.085Z,75.04
2023-04-01T19:06:09.940Z,75.27
2023-04-01T19:09:38.514Z,75.42
2023-04-01T19:13:08.977Z,74.72
2023-04-01T19:16:39.903Z,75.24
2023-04-01T19:20:04.437Z,75.86
2023-04-01T19:24:06.467Z,76.04
2023-04-01T19:27:40.970Z,76.19
2023-04-01T19:31:06.865Z,76.54
2023-04-01T19:34:30.955Z,76.39
2023-04-01T19:37:58.472Z,76.85
2023-04-01T19:41:29.259Z,76.69
2023-04-01T19:44:55.683Z,77.04
2023-04-01T19:48:44.828Z,76.59
2023-04-01T19:52:19.010Z,76.98
2023-04-01T19:55:51.769Z,77.25
2023-04-01T19:59:31.489Z,76.91
2023-04-01T20:03:03.711Z,76.47
2023-04-01T20:06:22.208Z,76.69
2023-04-01T20:09:53.527Z,76.67
2023-04-01T20:13:08.502Z,77.63
2023-04-01T20:16:22.093Z,77.41
2023-04-01T20:19:53.513Z,78.04
2023-04-01T20:23:42.898Z,78.18
2023-04-01T20:27:11.529Z,78.82
2023-04-01T20:30:44.477Z,79.95
2023-04-01T20:34:37.212Z,80.16
2023-04-01T20:38:17.552Z,81.03
2023-04-01T20:42:06.926Z,81.23
2023-04-01T20:45:36.774Z,82.91
2023-04-01T20:48:53.466Z,84.48
2023-04-01T20:52:20.883Z,84.99
2023-04-01T20:55:48.068Z,85.88
2023-04-01T20:59:18.925Z,86.60
2023-04-01T21:02:45.798Z,88.18
2023-04-01T21:06:06.549Z,89.30
2023-04-01T21:09:32.756Z,89.16
2023-04-01T21:12:54.632Z,88.96
2023-04-01T21:16:26.749Z,88.58
2023-04-01T21:19:57.741Z,88.37
2023-04-01T21:23:46.488Z,88.70
2023-04-01T21:27:19.480Z,89.32
2023-04-01T21:30:47.514Z,89.42
2023-04-01T21:34:30.486Z,89.82
2023-04-01T21:37:58.158Z,90.78
2023-04-01T21:41:23.484Z,92.27
2023-04-01T21:44:43.336Z,92.61
2023-04-01T21:48:31.467Z,93.33
2023-04-01T21:51:46.489Z,93.72
2023-04-01T21:55:36.709Z,94.03
2023-04-01T21:59:16.496Z,94.95
2023-04-01T22:02:33.587Z,93.02
2023-04-01T22:06:00.492Z,88.87
2023-04-01T22:09:39.492Z,87.15
2023-04-01T22:13:07.488Z,86.07
2023-04-01T22:16:44.518Z,84.31
2023-04-01T22:20:33.556Z,83.20
2023-04-01T22:23:54.505Z,83.33
2023-04-01T22:27:34.479Z,83.11
2023-04-01T22:30:57.503Z,83.03
2023-04-01T22:34:23.305Z,83.03
2023-04-01T22:37:48.515Z,83.53
2023-04-01T22:40:59.998Z,83.75
2023-04-01T22:44:08.502Z,84.11
2023-04-01T22:47:47.611Z,84.17
2023-04-01T22:50:49.541Z,84.46
2023-04-01T22:54:36.548Z,84.46
2023-04-01T22:57:48.499Z,84.46
2023-04-01T23:01:05.506Z,85.04
2023-04-01T23:04:19.511Z,85.19
2023-04-01T23:07:46.498Z,84.96
2023-04-01T23:10:57.180Z,84.91
2023-04-01T23:14:27.515Z,85.27
2023-04-01T23:17:50.520Z,85.10
2023-04-01T23:21:20.496Z,85.37
2023-04-01T23:24:45.495Z,85.36
2023-04-01T23:28:53.510Z,85.87
2023-04-01T23:32:04.904Z,85.91
2023-04-01T23:35:24.497Z,86.26
2023-04-01T23:38:34.489Z,86.36
2023-04-01T23:41:49.510Z,86.80
2023-04-01T23:45:01.472Z,86.55
2023-04-01T23:48:22.490Z,86.73
2023-04-01T23:51:38.626Z,87.04
2023-04-01T23:55:05.515Z,87.70
2023-04-01T23:58:23.952Z,88.51
